sensor_id;sensor_type;location;lat;lon;timestamp;P1;durP1;ratioP1;P2;durP2;ratioP2
53915;SDS011;39827;49.652;18.770;2023-05-29T00:01:50;129.60;;;120.93;;
53915;SDS011;39827;49.652;18.770;2023-05-29T00:04:15;122.35;;;114.45;;
53915;SDS011;39827;49.652;18.770;2023-05-29T00:06:41;114.10;;;106.38;;
53915;SDS011;39827;49.652;18.770;2023-05-29T00:09:06;139.48;;;129.50;;
53915;SDS011;39827;49.652;18.770;2023-05-29T00:11:32;179.50;;;166.30;;
53915;SDS011;39827;49.652;18.770;2023-05-29T00:13:57;173.85;;;161.02;;
53915;SDS011;39827;49.652;18.770;2023-05-29T00:16:23;142.25;;;132.65;;
53915;SDS011;39827;49.652;18.770;2023-05-29T00:18:49;152.27;;;141.57;;
53915;SDS011;39827;49.652;18.770;2023-05-29T00:21:15;151.82;;;141.38;;
53915;SDS011;39827;49.652;18.770;2023-05-29T00:23:41;165.07;;;153.80;;
53915;SDS011;39827;49.652;18.770;2023-05-29T00:26:06;175.25;;;162.73;;
53915;SDS011;39827;49.652;18.770;2023-05-29T00:28:32;184.77;;;171.82;;
53915;SDS011;39827;49.652;18.770;2023-05-29T00:30:57;191.15;;;177.48;;
53915;SDS011;39827;49.652;18.770;2023-05-29T00:33:23;134.15;;;125.55;;
53915;SDS011;39827;49.652;18.770;2023-05-29T00:35:48;153.13;;;143.75;;
53915;SDS011;39827;49.652;18.770;2023-05-29T00:38:14;136.15;;;127.78;;
53915;SDS011;39827;49.652;18.770;2023-05-29T00:40:39;147.10;;;138.05;;
53915;SDS011;39827;49.652;18.770;2023-05-29T00:43:05;182.50;;;171.02;;
53915;SDS011;39827;49.652;18.770;2023-05-29T00:45:30;192.88;;;181.15;;
53915;SDS011;39827;49.652;18.770;2023-05-29T00:47:57;145.18;;;136.32;;
53915;SDS011;39827;49.652;18.770;2023-05-29T00:50:22;149.45;;;140.45;;
53915;SDS011;39827;49.652;18.770;2023-05-29T00:52:49;156.45;;;146.82;;
53915;SDS011;39827;49.652;18.770;2023-05-29T00:55:15;81.95;;;76.30;;
53915;SDS011;39827;49.652;18.770;2023-05-29T00:57:41;92.57;;;86.80;;
53915;SDS011;39827;49.652;18.770;2023-05-29T01:00:07;179.30;;;168.23;;
53915;SDS011;39827;49.652;18.770;2023-05-29T01:02:35;110.55;;;103.53;;
53915;SDS011;39827;49.652;18.770;2023-05-29T01:05:02;125.53;;;117.15;;
53915;SDS011;39827;49.652;18.770;2023-05-29T01:07:27;169.52;;;158.80;;
53915;SDS011;39827;49.652;18.770;2023-05-29T01:09:53;239.95;;;224.90;;
53915;SDS011;39827;49.652;18.770;2023-05-29T01:20:41;254.75;;;238.77;;
53915;SDS011;39827;49.652;18.770;2023-05-29T01:28:30;267.45;;;250.35;;
53915;SDS011;39827;49.652;18.770;2023-05-29T01:30:58;195.07;;;182.60;;
53915;SDS011;39827;49.652;18.770;2023-05-29T01:33:26;164.27;;;153.93;;
53915;SDS011;39827;49.652;18.770;2023-05-29T01:35:52;157.70;;;148.07;;
53915;SDS011;39827;49.652;18.770;2023-05-29T01:38:18;156.40;;;147.00;;
53915;SDS011;39827;49.652;18.770;2023-05-29T01:40:44;151.82;;;142.40;;
53915;SDS011;39827;49.652;18.770;2023-05-29T01:43:09;137.70;;;129.25;;
53915;SDS011;39827;49.652;18.770;2023-05-29T01:45:36;210.00;;;196.52;;
53915;SDS011;39827;49.652;18.770;2023-05-29T01:48:01;216.13;;;202.82;;
53915;SDS011;39827;49.652;18.770;2023-05-29T01:50:27;223.82;;;210.02;;
53915;SDS011;39827;49.652;18.770;2023-05-29T01:52:54;155.30;;;145.43;;
53915;SDS011;39827;49.652;18.770;2023-05-29T01:55:19;150.73;;;141.30;;
53915;SDS011;39827;49.652;18.770;2023-05-29T01:57:45;200.25;;;187.93;;
53915;SDS011;39827;49.652;18.770;2023-05-29T02:00:11;188.98;;;177.50;;
53915;SDS011;39827;49.652;18.770;2023-05-29T02:02:38;183.05;;;171.90;;
53915;SDS011;39827;49.652;18.770;2023-05-29T02:05:04;213.23;;;200.40;;
53915;SDS011;39827;49.652;18.770;2023-05-29T02:07:31;140.45;;;131.82;;
53915;SDS011;39827;49.652;18.770;2023-05-29T02:09:56;225.07;;;210.98;;
53915;SDS011;39827;49.652;18.770;2023-05-29T02:12:22;221.00;;;207.00;;
53915;SDS011;39827;49.652;18.770;2023-05-29T02:14:47;178.00;;;166.70;;
53915;SDS011;39827;49.652;18.770;2023-05-29T02:17:13;154.98;;;145.40;;
53915;SDS011;39827;49.652;18.770;2023-05-29T02:19:39;191.73;;;179.75;;
53915;SDS011;39827;49.652;18.770;2023-05-29T02:22:05;106.72;;;100.18;;
53915;SDS011;39827;49.652;18.770;2023-05-29T02:24:31;207.25;;;194.32;;
53915;SDS011;39827;49.652;18.770;2023-05-29T02:26:56;204.48;;;191.38;;
53915;SDS011;39827;49.652;18.770;2023-05-29T02:29:21;177.68;;;166.30;;
53915;SDS011;39827;49.652;18.770;2023-05-29T02:31:47;244.55;;;229.23;;
53915;SDS011;39827;49.652;18.770;2023-05-29T02:34:12;226.32;;;212.35;;
53915;SDS011;39827;49.652;18.770;2023-05-29T02:36:38;148.50;;;139.38;;
53915;SDS011;39827;49.652;18.770;2023-05-29T02:39:04;109.47;;;102.78;;
53915;SDS011;39827;49.652;18.770;2023-05-29T02:41:30;103.30;;;97.10;;
53915;SDS011;39827;49.652;18.770;2023-05-29T02:43:56;103.05;;;96.63;;
53915;SDS011;39827;49.652;18.770;2023-05-29T02:46:21;178.10;;;167.40;;
53915;SDS011;39827;49.652;18.770;2023-05-29T02:48:47;185.10;;;173.93;;
53915;SDS011;39827;49.652;18.770;2023-05-29T02:51:13;182.70;;;171.82;;
53915;SDS011;39827;49.652;18.770;2023-05-29T02:53:39;142.15;;;133.45;;
53915;SDS011;39827;49.652;18.770;2023-05-29T02:56:05;117.82;;;110.53;;
53915;SDS011;39827;49.652;18.770;2023-05-29T02:58:32;105.75;;;99.32;;
53915;SDS011;39827;49.652;18.770;2023-05-29T03:00:58;172.23;;;161.82;;
53915;SDS011;39827;49.652;18.770;2023-05-29T03:03:23;72.72;;;68.20;;
53915;SDS011;39827;49.652;18.770;2023-05-29T03:05:49;72.15;;;67.80;;
53915;SDS011;39827;49.652;18.770;2023-05-29T03:08:14;124.03;;;115.93;;
53915;SDS011;39827;49.652;18.770;2023-05-29T03:10:39;182.98;;;169.60;;
53915;SDS011;39827;49.652;18.770;2023-05-29T03:13:06;217.10;;;201.75;;
53915;SDS011;39827;49.652;18.770;2023-05-29T03:15:31;257.85;;;237.32;;
53915;SDS011;39827;49.652;18.770;2023-05-29T03:17:56;196.30;;;183.25;;
53915;SDS011;39827;49.652;18.770;2023-05-29T03:20:22;230.95;;;216.05;;
53915;SDS011;39827;49.652;18.770;2023-05-29T03:22:48;218.68;;;204.77;;
53915;SDS011;39827;49.652;18.770;2023-05-29T03:25:14;127.35;;;118.95;;
53915;SDS011;39827;49.652;18.770;2023-05-29T03:27:41;82.18;;;76.80;;
53915;SDS011;39827;49.652;18.770;2023-05-29T03:30:06;124.93;;;117.25;;
53915;SDS011;39827;49.652;18.770;2023-05-29T03:32:32;109.93;;;102.95;;
53915;SDS011;39827;49.652;18.770;2023-05-29T03:34:58;115.68;;;108.65;;
53915;SDS011;39827;49.652;18.770;2023-05-29T03:37:23;108.13;;;100.65;;
53915;SDS011;39827;49.652;18.770;2023-05-29T03:39:48;89.30;;;83.10;;
53915;SDS011;39827;49.652;18.770;2023-05-29T03:42:14;124.68;;;116.05;;
53915;SDS011;39827;49.652;18.770;2023-05-29T03:44:40;165.57;;;154.20;;
53915;SDS011;39827;49.652;18.770;2023-05-29T03:47:06;228.35;;;212.15;;
53915;SDS011;39827;49.652;18.770;2023-05-29T03:49:33;280.95;;;261.17;;
53915;SDS011;39827;49.652;18.770;2023-05-29T03:51:59;307.55;;;286.38;;
53915;SDS011;39827;49.652;18.770;2023-05-29T03:54:25;332.27;;;308.95;;
53915;SDS011;39827;49.652;18.770;2023-05-29T03:56:51;360.48;;;335.13;;
53915;SDS011;39827;49.652;18.770;2023-05-29T03:59:16;390.88;;;363.00;;
53915;SDS011;39827;49.652;18.770;2023-05-29T04:01:41;340.65;;;316.38;;
53915;SDS011;39827;49.652;18.770;2023-05-29T04:04:07;351.45;;;326.05;;
53915;SDS011;39827;49.652;18.770;2023-05-29T04:06:32;378.80;;;351.42;;
53915;SDS011;39827;49.652;18.770;2023-05-29T04:08:58;464.77;;;429.92;;
53915;SDS011;39827;49.652;18.770;2023-05-29T04:11:23;546.63;;;505.95;;
53915;SDS011;39827;49.652;18.770;2023-05-29T04:13:49;501.40;;;464.50;;
53915;SDS011;39827;49.652;18.770;2023-05-29T04:16:14;528.25;;;488.98;;
53915;SDS011;39827;49.652;18.770;2023-05-29T04:18:40;552.95;;;512.20;;
53915;SDS011;39827;49.652;18.770;2023-05-29T04:21:06;567.58;;;525.60;;
53915;SDS011;39827;49.652;18.770;2023-05-29T04:23:32;502.55;;;465.83;;
53915;SDS011;39827;49.652;18.770;2023-05-29T04:25:57;476.98;;;440.50;;
53915;SDS011;39827;49.652;18.770;2023-05-29T04:28:23;438.70;;;406.75;;
53915;SDS011;39827;49.652;18.770;2023-05-29T04:30:49;509.70;;;471.88;;
53915;SDS011;39827;49.652;18.770;2023-05-29T04:33:14;571.85;;;529.58;;
53915;SDS011;39827;49.652;18.770;2023-05-29T04:35:40;599.53;;;554.55;;
53915;SDS011;39827;49.652;18.770;2023-05-29T04:38:09;631.75;;;584.25;;
53915;SDS011;39827;49.652;18.770;2023-05-29T04:40:35;715.10;;;661.88;;
53915;SDS011;39827;49.652;18.770;2023-05-29T04:43:01;733.15;;;677.67;;
53915;SDS011;39827;49.652;18.770;2023-05-29T04:45:27;672.50;;;622.95;;
53915;SDS011;39827;49.652;18.770;2023-05-29T04:47:53;717.13;;;663.63;;
53915;SDS011;39827;49.652;18.770;2023-05-29T04:50:20;730.30;;;673.80;;
53915;SDS011;39827;49.652;18.770;2023-05-29T04:52:45;707.42;;;652.72;;
53915;SDS011;39827;49.652;18.770;2023-05-29T04:55:11;776.13;;;717.83;;
53915;SDS011;39827;49.652;18.770;2023-05-29T04:57:36;764.50;;;706.15;;
53915;SDS011;39827;49.652;18.770;2023-05-29T05:00:03;755.78;;;698.28;;
53915;SDS011;39827;49.652;18.770;2023-05-29T05:02:33;721.10;;;666.58;;
53915;SDS011;39827;49.652;18.770;2023-05-29T05:04:58;730.00;;;673.50;;
53915;SDS011;39827;49.652;18.770;2023-05-29T05:07:24;753.28;;;695.08;;
53915;SDS011;39827;49.652;18.770;2023-05-29T05:09:49;745.13;;;687.42;;
53915;SDS011;39827;49.652;18.770;2023-05-29T05:12:15;754.88;;;696.65;;
53915;SDS011;39827;49.652;18.770;2023-05-29T05:14:41;751.15;;;693.03;;
53915;SDS011;39827;49.652;18.770;2023-05-29T05:17:06;751.40;;;693.03;;
53915;SDS011;39827;49.652;18.770;2023-05-29T05:19:31;770.60;;;711.22;;
53915;SDS011;39827;49.652;18.770;2023-05-29T05:21:57;760.60;;;700.70;;
53915;SDS011;39827;49.652;18.770;2023-05-29T05:24:22;774.80;;;714.63;;
53915;SDS011;39827;49.652;18.770;2023-05-29T05:26:48;778.22;;;717.45;;
53915;SDS011;39827;49.652;18.770;2023-05-29T05:29:13;793.50;;;730.60;;
53915;SDS011;39827;49.652;18.770;2023-05-29T05:31:39;777.33;;;716.03;;
53915;SDS011;39827;49.652;18.770;2023-05-29T05:34:04;852.53;;;780.40;;
53915;SDS011;39827;49.652;18.770;2023-05-29T05:36:30;839.25;;;771.47;;
53915;SDS011;39827;49.652;18.770;2023-05-29T05:38:56;853.33;;;782.75;;
53915;SDS011;39827;49.652;18.770;2023-05-29T05:41:21;889.60;;;813.60;;
53915;SDS011;39827;49.652;18.770;2023-05-29T05:43:47;873.35;;;798.75;;
53915;SDS011;39827;49.652;18.770;2023-05-29T05:46:12;899.83;;;824.00;;
53915;SDS011;39827;49.652;18.770;2023-05-29T05:48:39;893.20;;;817.95;;
53915;SDS011;39827;49.652;18.770;2023-05-29T05:51:05;877.42;;;804.10;;
53915;SDS011;39827;49.652;18.770;2023-05-29T05:53:31;892.45;;;816.10;;
53915;SDS011;39827;49.652;18.770;2023-05-29T05:55:57;915.38;;;835.53;;
53915;SDS011;39827;49.652;18.770;2023-05-29T05:58:22;938.90;;;857.83;;
53915;SDS011;39827;49.652;18.770;2023-05-29T06:00:47;938.60;;;855.05;;
53915;SDS011;39827;49.652;18.770;2023-05-29T06:03:13;963.90;;;876.97;;
53915;SDS011;39827;49.652;18.770;2023-05-29T06:05:39;960.50;;;874.33;;
53915;SDS011;39827;49.652;18.770;2023-05-29T06:08:06;934.88;;;852.25;;
53915;SDS011;39827;49.652;18.770;2023-05-29T06:10:33;925.25;;;843.85;;
53915;SDS011;39827;49.652;18.770;2023-05-29T06:12:58;914.97;;;835.85;;
53915;SDS011;39827;49.652;18.770;2023-05-29T06:15:24;937.53;;;853.92;;
53915;SDS011;39827;49.652;18.770;2023-05-29T06:17:49;937.63;;;854.35;;
53915;SDS011;39827;49.652;18.770;2023-05-29T06:20:16;951.63;;;866.20;;
53915;SDS011;39827;49.652;18.770;2023-05-29T06:22:42;952.05;;;865.88;;
53915;SDS011;39827;49.652;18.770;2023-05-29T06:25:08;957.47;;;870.90;;
53915;SDS011;39827;49.652;18.770;2023-05-29T06:27:34;1003.88;;;909.05;;
53915;SDS011;39827;49.652;18.770;2023-05-29T06:30:00;991.92;;;900.05;;
53915;SDS011;39827;49.652;18.770;2023-05-29T06:32:25;1011.15;;;915.38;;
53915;SDS011;39827;49.652;18.770;2023-05-29T06:34:53;1028.68;;;928.53;;
53915;SDS011;39827;49.652;18.770;2023-05-29T06:37:18;1034.75;;;933.28;;
53915;SDS011;39827;49.652;18.770;2023-05-29T06:39:44;1050.32;;;944.97;;
53915;SDS011;39827;49.652;18.770;2023-05-29T06:42:10;1037.78;;;935.65;;
53915;SDS011;39827;49.652;18.770;2023-05-29T06:44:36;1071.50;;;961.88;;
53915;SDS011;39827;49.652;18.770;2023-05-29T06:47:01;1074.10;;;964.47;;
53915;SDS011;39827;49.652;18.770;2023-05-29T06:49:27;1070.88;;;961.00;;
53915;SDS011;39827;49.652;18.770;2023-05-29T06:51:52;1088.60;;;975.58;;
53915;SDS011;39827;49.652;18.770;2023-05-29T06:54:17;1073.57;;;962.90;;
53915;SDS011;39827;49.652;18.770;2023-05-29T06:56:43;1093.28;;;979.25;;
53915;SDS011;39827;49.652;18.770;2023-05-29T06:59:08;1078.38;;;968.17;;
53915;SDS011;39827;49.652;18.770;2023-05-29T07:01:34;1081.20;;;970.22;;
53915;SDS011;39827;49.652;18.770;2023-05-29T07:03:59;731.97;;;674.60;;
53915;SDS011;39827;49.652;18.770;2023-05-29T07:06:25;743.40;;;685.67;;
53915;SDS011;39827;49.652;18.770;2023-05-29T07:08:50;763.88;;;704.15;;
53915;SDS011;39827;49.652;18.770;2023-05-29T07:11:17;781.28;;;720.40;;
53915;SDS011;39827;49.652;18.770;2023-05-29T07:13:43;779.28;;;719.08;;
53915;SDS011;39827;49.652;18.770;2023-05-29T07:16:08;778.17;;;717.55;;
53915;SDS011;39827;49.652;18.770;2023-05-29T07:18:33;773.20;;;713.72;;
53915;SDS011;39827;49.652;18.770;2023-05-29T07:20:59;763.97;;;704.33;;
53915;SDS011;39827;49.652;18.770;2023-05-29T07:23:25;770.05;;;710.22;;
53915;SDS011;39827;49.652;18.770;2023-05-29T07:25:51;764.35;;;704.67;;
53915;SDS011;39827;49.652;18.770;2023-05-29T07:28:16;766.38;;;706.95;;
53915;SDS011;39827;49.652;18.770;2023-05-29T07:30:41;794.80;;;733.03;;
53915;SDS011;39827;49.652;18.770;2023-05-29T07:33:07;754.55;;;696.20;;
53915;SDS011;39827;49.652;18.770;2023-05-29T07:35:32;754.35;;;696.65;;
53915;SDS011;39827;49.652;18.770;2023-05-29T07:37:58;750.88;;;693.33;;
53915;SDS011;39827;49.652;18.770;2023-05-29T07:40:24;746.45;;;689.33;;
53915;SDS011;39827;49.652;18.770;2023-05-29T07:42:50;745.03;;;688.40;;
53915;SDS011;39827;49.652;18.770;2023-05-29T07:45:15;759.38;;;700.92;;
53915;SDS011;39827;49.652;18.770;2023-05-29T07:47:41;777.35;;;717.22;;
53915;SDS011;39827;49.652;18.770;2023-05-29T07:50:07;758.75;;;700.63;;
53915;SDS011;39827;49.652;18.770;2023-05-29T07:52:33;749.78;;;692.42;;
53915;SDS011;39827;49.652;18.770;2023-05-29T07:54:58;765.97;;;707.28;;
53915;SDS011;39827;49.652;18.770;2023-05-29T07:57:26;756.55;;;698.90;;
53915;SDS011;39827;49.652;18.770;2023-05-29T07:59:52;722.00;;;667.53;;
53915;SDS011;39827;49.652;18.770;2023-05-29T08:02:17;745.75;;;689.13;;
53915;SDS011;39827;49.652;18.770;2023-05-29T08:04:43;741.78;;;685.35;;
53915;SDS011;39827;49.652;18.770;2023-05-29T08:07:08;737.25;;;681.20;;
53915;SDS011;39827;49.652;18.770;2023-05-29T08:09:35;717.53;;;663.10;;
53915;SDS011;39827;49.652;18.770;2023-05-29T08:12:00;737.53;;;681.58;;
53915;SDS011;39827;49.652;18.770;2023-05-29T08:14:27;716.28;;;661.38;;
53915;SDS011;39827;49.652;18.770;2023-05-29T08:16:52;741.78;;;685.88;;
53915;SDS011;39827;49.652;18.770;2023-05-29T08:19:18;716.20;;;661.85;;
53915;SDS011;39827;49.652;18.770;2023-05-29T08:21:43;707.47;;;654.03;;
53915;SDS011;39827;49.652;18.770;2023-05-29T08:24:09;726.13;;;671.28;;
53915;SDS011;39827;49.652;18.770;2023-05-29T08:26:34;722.60;;;667.83;;
53915;SDS011;39827;49.652;18.770;2023-05-29T08:29:00;686.08;;;634.03;;
53915;SDS011;39827;49.652;18.770;2023-05-29T08:31:26;716.53;;;662.00;;
53915;SDS011;39827;49.652;18.770;2023-05-29T08:33:52;697.83;;;644.88;;
53915;SDS011;39827;49.652;18.770;2023-05-29T08:36:18;694.10;;;641.05;;
53915;SDS011;39827;49.652;18.770;2023-05-29T08:38:50;683.55;;;631.70;;
53915;SDS011;39827;49.652;18.770;2023-05-29T08:41:25;713.90;;;660.10;;
53915;SDS011;39827;49.652;18.770;2023-05-29T08:43:59;710.78;;;657.40;;
53915;SDS011;39827;49.652;18.770;2023-05-29T08:46:28;715.78;;;661.60;;
53915;SDS011;39827;49.652;18.770;2023-05-29T08:48:54;666.47;;;615.60;;
53915;SDS011;39827;49.652;18.770;2023-05-29T08:51:23;664.67;;;613.67;;
53915;SDS011;39827;49.652;18.770;2023-05-29T08:53:56;658.80;;;608.78;;
53915;SDS011;39827;49.652;18.770;2023-05-29T08:56:22;664.35;;;613.60;;
53915;SDS011;39827;49.652;18.770;2023-05-29T08:58:48;667.40;;;616.28;;
53915;SDS011;39827;49.652;18.770;2023-05-29T09:01:15;680.15;;;628.40;;
53915;SDS011;39827;49.652;18.770;2023-05-29T09:03:42;670.72;;;619.47;;
53915;SDS011;39827;49.652;18.770;2023-05-29T09:06:07;672.78;;;620.70;;
53915;SDS011;39827;49.652;18.770;2023-05-29T09:08:33;660.40;;;609.30;;
53915;SDS011;39827;49.652;18.770;2023-05-29T09:10:59;667.08;;;616.08;;
53915;SDS011;39827;49.652;18.770;2023-05-29T09:13:25;665.75;;;614.92;;
53915;SDS011;39827;49.652;18.770;2023-05-29T09:15:56;677.22;;;626.70;;
53915;SDS011;39827;49.652;18.770;2023-05-29T09:18:23;675.05;;;624.72;;
53915;SDS011;39827;49.652;18.770;2023-05-29T09:20:48;725.97;;;672.92;;
53915;SDS011;39827;49.652;18.770;2023-05-29T09:23:14;750.95;;;695.88;;
53915;SDS011;39827;49.652;18.770;2023-05-29T09:25:40;711.70;;;660.45;;
53915;SDS011;39827;49.652;18.770;2023-05-29T09:28:09;691.97;;;642.92;;
53915;SDS011;39827;49.652;18.770;2023-05-29T09:30:36;710.35;;;659.78;;
53915;SDS011;39827;49.652;18.770;2023-05-29T09:33:04;735.50;;;682.25;;
53915;SDS011;39827;49.652;18.770;2023-05-29T09:35:33;717.13;;;666.40;;
53915;SDS011;39827;49.652;18.770;2023-05-29T09:37:59;722.38;;;670.22;;
53915;SDS011;39827;49.652;18.770;2023-05-29T09:40:26;701.20;;;651.55;;
53915;SDS011;39827;49.652;18.770;2023-05-29T09:42:51;721.45;;;670.42;;
53915;SDS011;39827;49.652;18.770;2023-05-29T09:45:17;730.00;;;678.85;;
53915;SDS011;39827;49.652;18.770;2023-05-29T09:47:43;732.85;;;680.25;;
53915;SDS011;39827;49.652;18.770;2023-05-29T09:50:17;708.28;;;658.10;;
53915;SDS011;39827;49.652;18.770;2023-05-29T09:52:45;704.00;;;654.58;;
53915;SDS011;39827;49.652;18.770;2023-05-29T09:55:11;698.72;;;649.97;;
53915;SDS011;39827;49.652;18.770;2023-05-29T09:57:43;705.38;;;655.80;;
53915;SDS011;39827;49.652;18.770;2023-05-29T10:00:11;711.65;;;660.85;;
53915;SDS011;39827;49.652;18.770;2023-05-29T10:02:38;727.63;;;675.58;;
53915;SDS011;39827;49.652;18.770;2023-05-29T10:05:05;751.85;;;697.75;;
53915;SDS011;39827;49.652;18.770;2023-05-29T10:07:33;711.40;;;659.75;;
53915;SDS011;39827;49.652;18.770;2023-05-29T10:10:05;715.30;;;664.00;;
53915;SDS011;39827;49.652;18.770;2023-05-29T10:12:34;713.75;;;662.03;;
53915;SDS011;39827;49.652;18.770;2023-05-29T10:15:02;738.90;;;684.83;;
53915;SDS011;39827;49.652;18.770;2023-05-29T10:17:35;731.78;;;679.40;;
53915;SDS011;39827;49.652;18.770;2023-05-29T10:20:04;682.78;;;633.65;;
53915;SDS011;39827;49.652;18.770;2023-05-29T10:22:32;739.08;;;684.95;;
53915;SDS011;39827;49.652;18.770;2023-05-29T10:24:59;711.35;;;659.70;;
53915;SDS011;39827;49.652;18.770;2023-05-29T10:27:25;697.10;;;647.42;;
53915;SDS011;39827;49.652;18.770;2023-05-29T10:30:08;740.03;;;686.33;;
53915;SDS011;39827;49.652;18.770;2023-05-29T10:35:42;737.13;;;683.50;;
53915;SDS011;39827;49.652;18.770;2023-05-29T10:38:12;722.22;;;669.95;;
53915;SDS011;39827;49.652;18.770;2023-05-29T10:40:41;758.08;;;702.17;;
53915;SDS011;39827;49.652;18.770;2023-05-29T10:43:07;702.05;;;651.63;;
53915;SDS011;39827;49.652;18.770;2023-05-29T10:45:47;732.75;;;679.92;;
53915;SDS011;39827;49.652;18.770;2023-05-29T10:53:15;692.85;;;643.67;;
53915;SDS011;39827;49.652;18.770;2023-05-29T10:55:42;725.42;;;672.58;;
53915;SDS011;39827;49.652;18.770;2023-05-29T10:58:20;715.05;;;663.58;;
53915;SDS011;39827;49.652;18.770;2023-05-29T11:00:50;693.45;;;644.28;;
53915;SDS011;39827;49.652;18.770;2023-05-29T11:03:25;699.05;;;649.10;;
53915;SDS011;39827;49.652;18.770;2023-05-29T11:06:01;649.08;;;602.35;;
53915;SDS011;39827;49.652;18.770;2023-05-29T11:08:55;684.97;;;635.15;;
53915;SDS011;39827;49.652;18.770;2023-05-29T11:13:53;711.05;;;660.03;;
53915;SDS011;39827;49.652;18.770;2023-05-29T11:18:54;705.05;;;654.25;;
53915;SDS011;39827;49.652;18.770;2023-05-29T11:24:21;658.60;;;610.80;;
53915;SDS011;39827;49.652;18.770;2023-05-29T11:26:49;656.78;;;608.60;;
53915;SDS011;39827;49.652;18.770;2023-05-29T11:29:17;695.17;;;644.67;;
53915;SDS011;39827;49.652;18.770;2023-05-29T11:31:47;648.72;;;601.83;;
53915;SDS011;39827;49.652;18.770;2023-05-29T11:34:14;665.03;;;616.72;;
53915;SDS011;39827;49.652;18.770;2023-05-29T11:36:40;673.30;;;623.85;;
53915;SDS011;39827;49.652;18.770;2023-05-29T11:39:08;724.28;;;671.90;;
53915;SDS011;39827;49.652;18.770;2023-05-29T11:41:34;700.00;;;649.03;;
53915;SDS011;39827;49.652;18.770;2023-05-29T11:44:00;712.22;;;660.22;;
53915;SDS011;39827;49.652;18.770;2023-05-29T11:46:27;693.80;;;643.22;;
53915;SDS011;39827;49.652;18.770;2023-05-29T11:48:56;706.08;;;653.63;;
53915;SDS011;39827;49.652;18.770;2023-05-29T11:51:21;712.55;;;660.63;;
53915;SDS011;39827;49.652;18.770;2023-05-29T11:53:47;692.20;;;642.00;;
53915;SDS011;39827;49.652;18.770;2023-05-29T11:56:13;705.40;;;654.35;;
53915;SDS011;39827;49.652;18.770;2023-05-29T11:58:39;684.65;;;635.25;;
53915;SDS011;39827;49.652;18.770;2023-05-29T12:01:06;676.90;;;627.90;;
53915;SDS011;39827;49.652;18.770;2023-05-29T12:03:42;662.00;;;613.15;;
53915;SDS011;39827;49.652;18.770;2023-05-29T12:06:08;683.63;;;633.42;;
53915;SDS011;39827;49.652;18.770;2023-05-29T12:08:38;637.40;;;590.33;;
53915;SDS011;39827;49.652;18.770;2023-05-29T12:11:04;681.40;;;631.67;;
53915;SDS011;39827;49.652;18.770;2023-05-29T12:13:30;671.95;;;620.90;;
53915;SDS011;39827;49.652;18.770;2023-05-29T12:15:59;635.22;;;587.90;;
53915;SDS011;39827;49.652;18.770;2023-05-29T12:18:28;659.28;;;609.65;;
53915;SDS011;39827;49.652;18.770;2023-05-29T12:21:01;643.42;;;596.22;;
53915;SDS011;39827;49.652;18.770;2023-05-29T12:23:27;655.70;;;607.78;;
53915;SDS011;39827;49.652;18.770;2023-05-29T12:25:53;647.60;;;599.85;;
53915;SDS011;39827;49.652;18.770;2023-05-29T12:28:19;668.53;;;619.33;;
53915;SDS011;39827;49.652;18.770;2023-05-29T12:30:46;659.50;;;609.95;;
53915;SDS011;39827;49.652;18.770;2023-05-29T12:33:24;632.17;;;585.72;;
53915;SDS011;39827;49.652;18.770;2023-05-29T12:36:07;603.10;;;557.22;;
53915;SDS011;39827;49.652;18.770;2023-05-29T12:38:46;655.05;;;606.38;;
53915;SDS011;39827;49.652;18.770;2023-05-29T12:43:53;589.38;;;545.85;;
53915;SDS011;39827;49.652;18.770;2023-05-29T12:46:20;586.83;;;542.53;;
53915;SDS011;39827;49.652;18.770;2023-05-29T12:48:46;572.72;;;530.25;;
53915;SDS011;39827;49.652;18.770;2023-05-29T12:51:11;551.72;;;511.55;;
53915;SDS011;39827;49.652;18.770;2023-05-29T12:53:37;518.67;;;481.83;;
53915;SDS011;39827;49.652;18.770;2023-05-29T12:56:03;555.35;;;514.40;;
53915;SDS011;39827;49.652;18.770;2023-05-29T12:58:28;549.40;;;508.67;;
53915;SDS011;39827;49.652;18.770;2023-05-29T13:00:54;493.45;;;458.85;;
53915;SDS011;39827;49.652;18.770;2023-05-29T13:03:22;560.00;;;518.55;;
53915;SDS011;39827;49.652;18.770;2023-05-29T13:05:51;571.47;;;528.65;;
53915;SDS011;39827;49.652;18.770;2023-05-29T13:08:18;545.03;;;504.85;;
53915;SDS011;39827;49.652;18.770;2023-05-29T13:10:44;568.33;;;526.58;;
53915;SDS011;39827;49.652;18.770;2023-05-29T13:13:10;548.53;;;508.60;;
53915;SDS011;39827;49.652;18.770;2023-05-29T13:15:37;580.92;;;536.70;;
53915;SDS011;39827;49.652;18.770;2023-05-29T13:18:05;569.72;;;526.90;;
53915;SDS011;39827;49.652;18.770;2023-05-29T13:20:30;571.78;;;529.00;;
53915;SDS011;39827;49.652;18.770;2023-05-29T13:22:57;560.92;;;518.65;;
53915;SDS011;39827;49.652;18.770;2023-05-29T13:25:22;563.88;;;522.47;;
53915;SDS011;39827;49.652;18.770;2023-05-29T13:27:48;581.00;;;537.42;;
53915;SDS011;39827;49.652;18.770;2023-05-29T13:30:15;514.90;;;478.23;;
53915;SDS011;39827;49.652;18.770;2023-05-29T13:32:41;571.78;;;529.30;;
53915;SDS011;39827;49.652;18.770;2023-05-29T13:35:07;554.42;;;512.45;;
53915;SDS011;39827;49.652;18.770;2023-05-29T13:37:33;562.05;;;520.25;;
53915;SDS011;39827;49.652;18.770;2023-05-29T13:40:01;517.90;;;480.75;;
53915;SDS011;39827;49.652;18.770;2023-05-29T13:42:26;574.70;;;530.60;;
53915;SDS011;39827;49.652;18.770;2023-05-29T13:44:52;566.90;;;524.25;;
53915;SDS011;39827;49.652;18.770;2023-05-29T13:47:18;596.92;;;551.85;;
53915;SDS011;39827;49.652;18.770;2023-05-29T13:49:43;517.17;;;478.65;;
53915;SDS011;39827;49.652;18.770;2023-05-29T13:52:09;560.30;;;518.53;;
53915;SDS011;39827;49.652;18.770;2023-05-29T13:54:35;563.17;;;520.45;;
53915;SDS011;39827;49.652;18.770;2023-05-29T13:57:03;618.38;;;572.17;;
53915;SDS011;39827;49.652;18.770;2023-05-29T13:59:31;564.85;;;522.40;;
53915;SDS011;39827;49.652;18.770;2023-05-29T14:01:57;540.50;;;501.40;;
53915;SDS011;39827;49.652;18.770;2023-05-29T14:04:23;588.10;;;543.40;;
53915;SDS011;39827;49.652;18.770;2023-05-29T14:06:48;630.42;;;583.25;;
53915;SDS011;39827;49.652;18.770;2023-05-29T14:09:14;604.63;;;558.33;;
53915;SDS011;39827;49.652;18.770;2023-05-29T14:11:39;573.25;;;530.08;;
53915;SDS011;39827;49.652;18.770;2023-05-29T14:14:05;598.42;;;553.65;;